createdAt,value
2023-02-04T00:02:18.299Z,81.93
2023-02-04T00:04:47.126Z,82.00
2023-02-04T00:07:18.601Z,82.30
2023-02-04T00:09:47.492Z,82.45
2023-02-04T00:12:16.674Z,82.67
2023-02-04T00:14:45.464Z,82.61
2023-02-04T00:17:14.373Z,82.77
2023-02-04T00:19:43.450Z,83.26
2023-02-04T00:22:12.360Z,83.34
2023-02-04T00:24:43.270Z,83.58
2023-02-04T00:27:12.031Z,83.93
2023-02-04T00:29:40.854Z,84.05
2023-02-04T00:32:09.854Z,84.06
2023-02-04T00:34:38.794Z,84.20
2023-02-04T00:37:07.736Z,84.33
2023-02-04T00:39:36.344Z,84.15
2023-02-04T00:42:08.509Z,84.11
2023-02-04T00:44:37.979Z,84.24
2023-02-04T00:47:06.828Z,84.55
2023-02-04T00:49:35.794Z,84.54
2023-02-04T00:52:04.968Z,84.50
2023-02-04T00:54:33.802Z,84.95
2023-02-04T00:57:03.379Z,84.67
2023-02-04T00:59:32.220Z,85.07
2023-02-04T01:02:00.982Z,84.83
2023-02-04T01:04:31.090Z,85.18
2023-02-04T01:07:00.042Z,85.08
2023-02-04T01:09:28.899Z,85.23
2023-02-04T01:11:57.847Z,85.45
2023-02-04T01:14:26.655Z,85.58
2023-02-04T01:16:55.399Z,85.55
2023-02-04T01:19:24.094Z,85.52
2023-02-04T01:21:52.839Z,85.52
2023-02-04T01:24:21.550Z,85.86
2023-02-04T01:27:08.852Z,85.63
2023-02-04T01:29:38.224Z,85.58
2023-02-04T01:32:07.031Z,85.75
2023-02-04T01:34:35.741Z,86.03
2023-02-04T01:37:04.407Z,85.91
2023-02-04T01:39:34.351Z,86.53
2023-02-04T01:42:04.099Z,86.23
2023-02-04T01:44:32.995Z,86.21
2023-02-04T01:47:02.165Z,86.05
2023-02-04T01:49:31.333Z,86.15
2023-02-04T01:52:00.315Z,85.95
2023-02-04T01:54:29.267Z,86.22
2023-02-04T01:56:58.942Z,86.30
2023-02-04T01:59:27.896Z,86.49
2023-02-04T02:01:56.723Z,86.51
2023-02-04T02:04:33.872Z,86.54
2023-02-04T02:07:06.927Z,86.72
2023-02-04T02:09:36.247Z,86.53
2023-02-04T02:12:08.097Z,86.45
2023-02-04T02:14:36.915Z,86.77
2023-02-04T02:17:05.757Z,86.63
2023-02-04T02:19:38.574Z,86.83
2023-02-04T02:22:37.948Z,87.09
2023-02-04T02:25:12.915Z,86.90
2023-02-04T02:27:42.030Z,86.68
2023-02-04T02:30:14.244Z,86.78
2023-02-04T02:32:44.934Z,86.65
2023-02-04T02:35:15.545Z,86.63
2023-02-04T02:37:44.519Z,86.57
2023-02-04T02:40:15.213Z,86.91
2023-02-04T02:42:48.363Z,86.91
2023-02-04T02:45:30.266Z,86.84
2023-02-04T02:48:02.992Z,86.72
2023-02-04T02:50:33.410Z,86.60
2023-02-04T02:53:04.445Z,86.76
2023-02-04T02:55:33.349Z,86.81
2023-02-04T02:58:05.975Z,86.62
2023-02-04T03:00:34.971Z,86.92
2023-02-04T03:03:18.604Z,86.81
2023-02-04T03:05:52.994Z,86.28
2023-02-04T03:08:22.650Z,86.19
2023-02-04T03:10:51.661Z,86.50
2023-02-04T03:13:21.572Z,86.27
2023-02-04T03:15:51.514Z,86.36
2023-02-04T03:18:21.764Z,86.29
2023-02-04T03:20:52.308Z,86.21
2023-02-04T03:23:21.572Z,86.28
2023-02-04T03:25:50.378Z,86.29
2023-02-04T03:28:19.311Z,86.28
2023-02-04T03:30:56.057Z,86.34
2023-02-04T03:33:29.400Z,86.13
2023-02-04T03:35:59.485Z,86.36
2023-02-04T03:38:28.477Z,86.38
2023-02-04T03:40:57.242Z,86.44
2023-02-04T03:43:26.020Z,86.61
2023-02-04T03:45:55.255Z,86.40
2023-02-04T03:48:23.988Z,86.22
2023-02-04T03:50:52.701Z,86.22
2023-02-04T03:53:22.420Z,86.57
2023-02-04T03:55:51.114Z,86.73
2023-02-04T03:58:19.837Z,86.44
2023-02-04T04:00:49.046Z,86.19
2023-02-04T04:03:17.885Z,86.02
2023-02-04T04:05:46.721Z,86.22
2023-02-04T04:08:15.473Z,85.98
2023-02-04T04:10:44.442Z,86.01
2023-02-04T04:13:13.502Z,86.01
2023-02-04T04:15:42.560Z,86.17
2023-02-04T04:18:11.382Z,86.06
2023-02-04T04:20:39.941Z,86.19
2023-02-04T04:23:08.687Z,86.06
2023-02-04T04:25:37.607Z,86.11
2023-02-04T04:28:06.499Z,86.46
2023-02-04T04:30:35.229Z,86.68
2023-02-04T04:33:04.116Z,86.30
2023-02-04T04:35:32.950Z,86.58
2023-02-04T04:38:03.183Z,86.49
2023-02-04T04:40:32.324Z,86.53
2023-02-04T04:43:01.271Z,86.54
2023-02-04T04:45:29.971Z,86.55
2023-02-04T04:47:58.690Z,86.69
2023-02-04T04:50:27.705Z,86.78
2023-02-04T04:52:56.382Z,86.53
2023-02-04T04:55:25.171Z,86.89
2023-02-04T04:57:54.122Z,86.88
2023-02-04T05:00:23.200Z,86.69
2023-02-04T05:02:51.966Z,86.91
2023-02-04T05:05:20.949Z,86.80
2023-02-04T05:07:49.948Z,87.25
2023-02-04T05:10:20.384Z,86.90
2023-02-04T05:12:49.136Z,86.67
2023-02-04T05:15:18.069Z,86.70
2023-02-04T05:17:46.925Z,86.48
2023-02-04T05:20:15.769Z,86.36
2023-02-04T05:22:44.638Z,86.44
2023-02-04T05:25:13.530Z,86.39
2023-02-04T05:27:43.372Z,86.51
2023-02-04T05:30:13.567Z,86.32
2023-02-04T05:32:42.685Z,86.62
2023-02-04T05:35:11.526Z,86.48
2023-02-04T05:37:40.353Z,86.67
2023-02-04T05:40:09.897Z,86.58
2023-02-04T05:42:38.841Z,86.43
2023-02-04T05:45:09.986Z,86.31
2023-02-04T05:47:39.089Z,86.33
2023-02-04T05:50:08.784Z,86.38
2023-02-04T05:52:42.772Z,86.43
2023-02-04T05:55:13.038Z,86.32
2023-02-04T05:57:42.753Z,86.61
2023-02-04T06:00:13.694Z,86.66
2023-02-04T06:02:42.396Z,86.84
2023-02-04T06:05:11.304Z,86.66
2023-02-04T06:07:42.439Z,86.33
2023-02-04T06:10:12.064Z,86.38
2023-02-04T06:12:40.982Z,86.57
2023-02-04T06:15:10.430Z,86.46
2023-02-04T06:17:39.926Z,86.33
2023-02-04T06:20:09.634Z,86.30
2023-02-04T06:22:38.429Z,86.62
2023-02-04T06:25:07.867Z,86.52
2023-02-04T06:27:38.003Z,86.46
2023-02-04T06:30:07.346Z,86.56
2023-02-04T06:32:36.774Z,86.43
2023-02-04T06:35:07.437Z,86.62
2023-02-04T06:37:36.261Z,86.50
2023-02-04T06:40:06.424Z,86.33
2023-02-04T06:42:35.148Z,86.33
2023-02-04T06:45:04.934Z,86.34
2023-02-04T06:47:33.733Z,86.45
2023-02-04T06:50:02.491Z,86.19
2023-02-04T06:52:31.317Z,86.18
2023-02-04T06:55:00.090Z,85.84
2023-02-04T06:57:28.964Z,85.54
2023-02-04T06:59:58.312Z,85.09
2023-02-04T07:02:27.165Z,84.73
2023-02-04T07:04:55.937Z,84.62
2023-02-04T07:07:24.712Z,84.68
2023-02-04T07:09:53.933Z,84.53
2023-02-04T07:12:24.989Z,84.34
2023-02-04T07:14:53.826Z,84.35
2023-02-04T07:17:23.966Z,84.10
2023-02-04T07:19:53.212Z,84.04
2023-02-04T07:22:23.556Z,83.81
2023-02-04T07:24:52.198Z,83.68
2023-02-04T07:27:20.955Z,83.44
2023-02-04T07:29:49.694Z,83.15
2023-02-04T07:32:18.279Z,83.31
2023-02-04T07:34:48.264Z,83.06
2023-02-04T07:37:17.038Z,82.37
2023-02-04T07:39:45.785Z,81.94
2023-02-04T07:42:14.450Z,81.73
2023-02-04T07:44:46.280Z,81.88
2023-02-04T07:47:15.048Z,82.17
2023-02-04T07:49:43.836Z,81.59
2023-02-04T07:52:12.552Z,81.11
2023-02-04T07:54:41.182Z,80.51
2023-02-04T07:57:09.873Z,80.37
2023-02-04T07:59:38.702Z,79.87
2023-02-04T08:02:08.102Z,79.23
2023-02-04T08:04:38.287Z,78.77
2023-02-04T08:07:07.338Z,78.99
2023-02-04T08:09:36.994Z,79.31
2023-02-04T08:12:06.585Z,79.44
2023-02-04T08:14:35.380Z,80.01
2023-02-04T08:17:05.294Z,79.73
2023-02-04T08:19:36.610Z,79.54
2023-02-04T08:22:05.363Z,79.66
2023-02-04T08:24:34.230Z,79.62
2023-02-04T08:27:03.219Z,78.73
2023-02-04T08:29:32.100Z,79.66
2023-02-04T08:32:01.532Z,78.27
2023-02-04T08:34:31.534Z,78.63
2023-02-04T08:37:01.970Z,77.74
2023-02-04T08:39:30.827Z,77.78
2023-02-04T08:42:00.212Z,78.00
2023-02-04T08:44:29.538Z,77.50
2023-02-04T08:46:58.412Z,77.22
2023-02-04T08:49:27.062Z,76.68
2023-02-04T08:51:55.927Z,76.99
2023-02-04T08:54:26.354Z,76.66
2023-02-04T08:56:55.192Z,75.15
2023-02-04T08:59:24.408Z,73.93
2023-02-04T09:01:58.267Z,74.40
2023-02-04T09:04:28.714Z,74.25
2023-02-04T09:06:57.525Z,74.52
2023-02-04T09:09:26.487Z,74.66
2023-02-04T09:11:55.256Z,74.73
2023-02-04T09:14:23.987Z,74.56
2023-02-04T09:16:52.773Z,74.24
2023-02-04T09:19:25.689Z,74.97
2023-02-04T09:21:54.665Z,75.48
2023-02-04T09:24:23.847Z,75.93
2023-02-04T09:26:52.670Z,76.01
2023-02-04T09:29:21.608Z,75.98
2023-02-04T09:31:50.289Z,75.95
2023-02-04T09:34:19.933Z,75.05
2023-02-04T09:36:48.691Z,74.49
2023-02-04T09:39:17.363Z,74.55
2023-02-04T09:41:46.173Z,74.64
2023-02-04T09:44:20.316Z,74.93
2023-02-04T09:46:53.612Z,75.08
2023-02-04T09:49:23.794Z,74.36
2023-02-04T09:51:53.389Z,73.79
2023-02-04T09:54:23.948Z,73.64
2023-02-04T09:56:53.525Z,73.79
2023-02-04T09:59:24.452Z,74.02
2023-02-04T10:02:02.006Z,73.51
2023-02-04T10:04:31.216Z,73.31
2023-02-04T10:06:59.967Z,72.94
2023-02-04T10:09:28.699Z,73.29
2023-02-04T10:11:57.397Z,73.27
2023-02-04T10:14:26.097Z,73.36
2023-02-04T10:16:59.474Z,73.16
2023-02-04T10:19:31.050Z,72.96
2023-02-04T10:22:00.465Z,72.85
2023-02-04T10:24:30.878Z,72.37
2023-02-04T10:27:12.259Z,72.10
2023-02-04T10:29:42.455Z,71.94
2023-02-04T10:32:32.967Z,72.04
2023-02-04T10:35:03.855Z,72.07
2023-02-04T10:37:32.577Z,71.67
2023-02-04T10:40:01.587Z,70.95
2023-02-04T10:42:32.760Z,70.23
2023-02-04T10:45:01.572Z,70.17
2023-02-04T10:47:31.724Z,70.11
2023-02-04T10:50:17.778Z,69.65
2023-02-04T10:52:51.692Z,68.97
2023-02-04T10:55:24.807Z,68.30
2023-02-04T10:57:53.849Z,68.15
2023-02-04T11:00:25.877Z,68.58
2023-02-04T11:03:04.355Z,68.21
2023-02-04T11:05:35.688Z,67.90
2023-02-04T11:08:20.925Z,68.00
2023-02-04T11:11:06.108Z,67.66
2023-02-04T11:13:57.456Z,66.72
2023-02-04T11:16:30.553Z,66.59
2023-02-04T11:19:07.329Z,66.74
2023-02-04T11:21:35.970Z,66.60
2023-02-04T11:24:16.489Z,67.23
2023-02-04T11:27:05.180Z,66.36
2023-02-04T11:29:39.283Z,65.63
2023-02-04T11:32:38.550Z,66.19
2023-02-04T11:35:13.378Z,67.04
2023-02-04T11:37:43.715Z,66.34
2023-02-04T11:40:38.284Z,66.97
2023-02-04T11:43:21.940Z,66.87
2023-02-04T11:46:13.451Z,66.59
2023-02-04T11:48:44.100Z,66.57
2023-02-04T11:51:18.810Z,66.59
2023-02-04T11:53:52.809Z,66.63
2023-02-04T11:56:23.337Z,67.14
2023-02-04T11:58:55.801Z,66.79
2023-02-04T12:01:32.169Z,67.09
2023-02-04T12:04:07.026Z,67.36
2023-02-04T12:06:37.799Z,67.54
2023-02-04T12:09:22.483Z,67.62
2023-02-04T12:12:00.166Z,67.42
2023-02-04T12:14:37.149Z,67.43
2023-02-04T12:17:20.853Z,66.88
2023-02-04T12:19:49.491Z,66.89
2023-02-04T12:22:18.398Z,67.08
2023-02-04T12:24:47.191Z,67.14
2023-02-04T12:27:17.134Z,67.26
2023-02-04T12:29:46.181Z,67.07
2023-02-04T12:32:15.025Z,67.40
2023-02-04T12:34:46.927Z,67.63
2023-02-04T12:37:15.570Z,67.19
2023-02-04T12:39:47.775Z,66.99
2023-02-04T12:42:16.405Z,67.35
2023-02-04T12:44:45.173Z,67.54
2023-02-04T12:47:13.860Z,67.59
2023-02-04T12:49:42.733Z,67.39
2023-02-04T12:52:11.343Z,67.60
2023-02-04T12:54:40.143Z,67.60
2023-02-04T12:57:08.831Z,66.85
2023-02-04T12:59:37.835Z,66.53
2023-02-04T13:02:06.684Z,66.76
2023-02-04T13:04:36.571Z,66.55
2023-02-04T13:07:07.584Z,66.63
2023-02-04T13:09:37.503Z,66.27
2023-02-04T13:12:06.545Z,66.21
2023-02-04T13:14:35.262Z,65.91
2023-02-04T13:17:03.847Z,65.93
2023-02-04T13:19:32.735Z,65.80
2023-02-04T13:22:01.529Z,65.51
2023-02-04T13:24:30.395Z,65.61
2023-02-04T13:26:59.299Z,65.00
2023-02-04T13:29:28.091Z,65.38
2023-02-04T13:31:56.962Z,65.36
2023-02-04T13:34:25.819Z,65.42
2023-02-04T13:36:54.679Z,65.21
2023-02-04T13:39:23.941Z,65.41
2023-02-04T13:41:55.736Z,65.87
2023-02-04T13:44:24.495Z,66.11
2023-02-04T13:46:53.459Z,66.06
2023-02-04T13:49:22.296Z,64.99
2023-02-04T13:51:51.068Z,65.19
2023-02-04T13:54:19.798Z,65.04
2023-02-04T13:56:48.488Z,64.92
2023-02-04T13:59:17.299Z,64.60
2023-02-04T14:01:46.301Z,64.53
2023-02-04T14:04:15.088Z,65.02
2023-02-04T14:06:44.080Z,64.92
2023-02-04T14:09:13.505Z,64.86
2023-02-04T14:11:42.202Z,65.06
2023-02-04T14:14:11.684Z,65.28
2023-02-04T14:16:40.360Z,65.06
2023-02-04T14:19:09.701Z,64.99
2023-02-04T14:21:38.436Z,65.24
2023-02-04T14:24:07.473Z,65.22
2023-02-04T14:26:36.049Z,65.14
2023-02-04T14:29:04.926Z,65.27
2023-02-04T14:31:33.844Z,65.22
2023-02-04T14:34:02.680Z,65.76
2023-02-04T14:36:32.924Z,65.54
2023-02-04T14:39:02.242Z,65.48
2023-02-04T14:41:31.526Z,65.43
2023-02-04T14:44:00.353Z,65.42
2023-02-04T14:46:29.119Z,65.44
2023-02-04T14:48:57.807Z,65.40
2023-02-04T14:51:26.404Z,65.53
2023-02-04T14:53:55.263Z,65.50
2023-02-04T14:56:24.236Z,65.31
2023-02-04T14:58:55.313Z,65.26
2023-02-04T15:01:28.065Z,65.35
2023-02-04T15:03:57.121Z,65.77
2023-02-04T15:06:25.866Z,65.90
2023-02-04T15:08:54.888Z,66.28
2023-02-04T15:11:24.065Z,66.82
2023-02-04T15:13:52.997Z,67.15
2023-02-04T15:16:22.616Z,67.33
2023-02-04T15:19:04.257Z,67.53
2023-02-04T15:21:33.352Z,67.28
2023-02-04T15:24:02.398Z,67.38
2023-02-04T15:26:33.305Z,67.27
2023-02-04T15:29:02.218Z,66.88
2023-02-04T15:31:48.587Z,66.38
2023-02-04T15:34:23.251Z,66.55
2023-02-04T15:36:53.042Z,66.58
2023-02-04T15:39:22.879Z,66.73
2023-02-04T15:41:52.772Z,66.94
2023-02-04T15:44:22.427Z,67.12
2023-02-04T15:46:52.165Z,67.56
2023-02-04T15:49:24.154Z,67.90
2023-02-04T15:51:58.246Z,68.81
2023-02-04T15:54:29.207Z,69.15
2023-02-04T15:56:59.016Z,69.26
2023-02-04T15:59:28.906Z,69.46
2023-02-04T16:01:59.021Z,69.54
2023-02-04T16:04:29.092Z,69.54
2023-02-04T16:06:59.646Z,69.71
2023-02-04T16:09:32.733Z,69.83
2023-02-04T16:12:06.826Z,69.29
2023-02-04T16:14:35.936Z,69.28
2023-02-04T16:17:07.485Z,68.48
2023-02-04T16:19:43.399Z,68.60
2023-02-04T16:22:13.072Z,68.04
2023-02-04T16:24:45.989Z,68.05
2023-02-04T16:27:15.277Z,69.02
2023-02-04T16:29:47.367Z,69.53
2023-02-04T16:32:16.774Z,70.32
2023-02-04T16:34:49.369Z,71.34
2023-02-04T16:37:19.231Z,71.59
2023-02-04T16:39:49.286Z,71.76
2023-02-04T16:42:18.786Z,71.83
2023-02-04T16:44:49.600Z,71.82
2023-02-04T16:47:19.028Z,71.83
2023-02-04T16:49:49.387Z,72.32
2023-02-04T16:52:18.857Z,73.21
2023-02-04T16:54:48.121Z,73.89
2023-02-04T16:57:18.810Z,74.76
2023-02-04T16:59:47.965Z,75.04
2023-02-04T17:02:19.618Z,75.27
2023-02-04T17:04:49.310Z,75.71
2023-02-04T17:07:18.488Z,75.83
2023-02-04T17:09:47.804Z,75.63
2023-02-04T17:12:20.758Z,75.39
2023-02-04T17:14:51.065Z,75.35
2023-02-04T17:17:21.267Z,75.35
2023-02-04T17:19:52.899Z,75.26
2023-02-04T17:22:22.019Z,75.38
2023-02-04T17:24:54.932Z,76.01
2023-02-04T17:31:12.600Z,76.72
2023-02-04T17:33:52.181Z,77.02
2023-02-04T17:36:23.543Z,77.03
2023-02-04T17:38:56.089Z,76.93
2023-02-04T17:41:29.888Z,76.91
2023-02-04T17:44:00.302Z,76.88
2023-02-04T17:46:29.847Z,76.70
2023-02-04T17:49:02.728Z,76.75
2023-02-04T17:51:33.110Z,76.81
2023-02-04T17:54:05.153Z,76.81
2023-02-04T17:56:34.144Z,76.81
2023-02-04T17:59:02.936Z,76.42
2023-02-04T18:01:35.015Z,76.31
2023-02-04T18:04:05.187Z,76.11
2023-02-04T18:06:37.638Z,75.78
2023-02-04T18:09:15.767Z,75.28
2023-02-04T18:11:50.135Z,74.50
2023-02-04T18:14:28.674Z,73.94
2023-02-04T18:17:00.711Z,73.46
2023-02-04T18:19:37.394Z,72.23
2023-02-04T18:22:18.061Z,72.09
2023-02-04T18:24:49.095Z,72.21
2023-02-04T18:27:24.941Z,72.28
2023-02-04T18:30:01.901Z,72.04
2023-02-04T18:32:45.622Z,72.48
2023-02-04T18:35:23.908Z,73.12
2023-02-04T18:37:53.555Z,73.81
2023-02-04T18:40:32.879Z,74.76
2023-02-04T18:43:24.118Z,75.38
2023-02-04T18:45:54.908Z,76.28
2023-02-04T18:48:24.014Z,76.33
2023-02-04T18:50:55.335Z,76.57
2023-02-04T18:53:28.944Z,77.47
2023-02-04T18:56:02.092Z,77.72
2023-02-04T18:58:35.755Z,78.96
2023-02-04T19:01:28.018Z,78.96
2023-02-04T19:04:01.252Z,79.05
2023-02-04T19:06:44.730Z,79.41
2023-02-04T19:09:33.298Z,79.82
2023-02-04T19:12:22.634Z,79.84
2023-02-04T19:14:52.255Z,80.08
2023-02-04T19:17:30.135Z,80.26
2023-02-04T19:20:19.485Z,80.29
2023-02-04T19:22:54.147Z,80.05
2023-02-04T19:25:42.000Z,80.23
2023-02-04T19:28:18.170Z,80.43
2023-02-04T19:30:51.741Z,80.63
2023-02-04T19:33:29.529Z,81.41
2023-02-04T19:36:22.277Z,81.36
2023-02-04T19:39:02.035Z,81.86
2023-02-04T19:41:53.758Z,82.39
2023-02-04T19:44:43.955Z,82.76
2023-02-04T19:47:26.915Z,83.45
2023-02-04T19:50:15.522Z,83.28
2023-02-04T19:52:52.646Z,83.63
2023-02-04T19:55:28.190Z,83.72
2023-02-04T19:58:11.719Z,83.96
2023-02-04T20:01:15.929Z,83.96
2023-02-04T20:03:52.276Z,84.45
2023-02-04T20:06:26.988Z,84.99
2023-02-04T20:09:36.401Z,84.95
2023-02-04T20:12:28.046Z,85.70
2023-02-04T20:14:58.339Z,85.83
2023-02-04T20:17:40.114Z,85.82
2023-02-04T20:20:31.262Z,85.82
2023-02-04T20:23:29.308Z,86.20
2023-02-04T20:26:01.008Z,86.09
2023-02-04T20:28:43.383Z,86.19
2023-02-04T20:31:39.222Z,86.25
2023-02-04T20:34:24.179Z,85.98
2023-02-04T20:36:56.748Z,85.38
2023-02-04T20:39:40.818Z,84.73
2023-02-04T20:42:34.696Z,83.46
2023-02-04T20:45:59.823Z,82.41
2023-02-04T20:48:37.255Z,80.91
2023-02-04T20:51:25.188Z,79.77
2023-02-04T20:54:01.884Z,79.52
2023-02-04T20:56:37.624Z,79.30
2023-02-04T20:59:13.056Z,78.30
2023-02-04T21:01:50.348Z,78.07
2023-02-04T21:04:23.368Z,77.63
2023-02-04T21:06:55.870Z,77.03
2023-02-04T21:09:29.195Z,76.14
2023-02-04T21:12:05.392Z,75.86
2023-02-04T21:14:35.167Z,75.48
2023-02-04T21:17:05.045Z,74.57
2023-02-04T21:19:35.449Z,73.80
2023-02-04T21:22:05.737Z,73.52
2023-02-04T21:24:34.852Z,73.60
2023-02-04T21:27:05.958Z,74.00
2023-02-04T21:29:35.299Z,74.34
2023-02-04T21:32:04.573Z,74.72
2023-02-04T21:34:33.665Z,75.22
2023-02-04T21:37:04.381Z,75.47
2023-02-04T21:39:34.323Z,74.90
2023-02-04T21:42:12.742Z,75.39
2023-02-04T21:44:41.945Z,75.28
2023-02-04T21:47:11.896Z,75.00
2023-02-04T21:49:43.008Z,73.88
2023-02-04T21:53:48.667Z,73.76
2023-02-04T21:56:17.955Z,73.34
2023-02-04T21:59:38.828Z,72.73
2023-02-04T22:02:18.701Z,72.06
2023-02-04T22:05:59.314Z,71.54
2023-02-04T22:08:31.426Z,70.83
2023-02-04T22:11:39.001Z,69.82
2023-02-04T22:14:29.194Z,69.73
2023-02-04T22:17:14.220Z,70.41
2023-02-04T22:20:35.138Z,70.53
2023-02-04T22:23:22.472Z,70.57
2023-02-04T22:25:53.189Z,70.65
2023-02-04T22:28:22.975Z,70.66
2023-02-04T22:30:54.153Z,70.94
2023-02-04T22:33:33.445Z,71.33
2023-02-04T22:36:12.074Z,71.40
2023-02-04T22:38:45.844Z,71.29
2023-02-04T22:41:25.543Z,71.33
2023-02-04T22:44:32.826Z,70.93
2023-02-04T22:47:01.925Z,70.92
2023-02-04T22:49:32.833Z,70.91
2023-02-04T22:52:28.752Z,70.71
2023-02-04T22:55:20.938Z,70.64
2023-02-04T22:57:55.187Z,70.52
2023-02-04T23:00:33.363Z,70.36
2023-02-04T23:03:02.083Z,70.33
2023-02-04T23:05:31.117Z,70.68
2023-02-04T23:07:59.913Z,71.02
2023-02-04T23:10:31.408Z,71.62
2023-02-04T23:13:00.256Z,71.74
2023-02-04T23:15:29.041Z,71.50
2023-02-04T23:17:58.529Z,71.78
2023-02-04T23:20:27.737Z,72.13
2023-02-04T23:22:56.494Z,72.56
2023-02-04T23:25:25.124Z,73.16
2023-02-04T23:27:53.918Z,73.98
2023-02-04T23:30:24.440Z,74.07
2023-02-04T23:32:53.269Z,74.44
2023-02-04T23:35:22.022Z,75.02
2023-02-04T23:37:50.652Z,75.67
2023-02-04T23:40:19.399Z,76.12
2023-02-04T23:42:48.068Z,76.80
2023-02-04T23:45:16.971Z,76.67
2023-02-04T23:47:45.670Z,77.15
2023-02-04T23:50:14.352Z,77.41
2023-02-04T23:52:44.112Z,77.93
2023-02-04T23:55:16.717Z,78.13
2023-02-04T23:57:49.973Z,77.86
